Time;durP1;ratioP1;P1;durP2;ratioP2;P2;SDS_P1;SDS_P2;PMS_P1;PMS_P2;Temp;Humidity;BMP_temperature;BMP_pressure;BME280_temperature;BME280_humidity;BME280_pressure;Samples;Min_cycle;Max_cycle;Signal;HPM_P1;HPM_P2
2023/07/13 00:00:42;;;;;;;;;;;;;;;24.58;54.92;95654.56;10411527;28;2052;-66
2023/07/13 00:05:42;;;;;;;;;;;;;;;24.52;55.07;95641.72;10414660;28;1820;-64
2023/07/13 00:10:42;;;;;;;;;;;;;;;24.50;54.87;95641.25;10412421;28;1989;-67
2023/07/13 00:15:43;;;;;;;;;;;;;;;24.50;55.06;95635.94;10410752;28;1919;-64
2023/07/13 00:20:43;;;;;;;;;;;;;;;24.52;54.93;95631.91;10409301;28;2087;-64
2023/07/13 00:25:44;;;;;;;;;;;;;;;24.50;54.83;95643.91;10411372;28;2324;-64
2023/07/13 00:30:44;;;;;;;;;;;;;;;24.50;54.89;95635.94;10405685;28;1977;-64
2023/07/13 00:35:44;;;;;;;;;;;;;;;24.48;54.90;95641.56;10408854;28;1945;-64
2023/07/13 00:40:45;;;;;;;;;;;;;;;24.49;54.84;95651.06;10415070;28;1831;-64
2023/07/13 00:45:45;;;;;;;;;;;;;;;24.47;54.84;95641.84;10406577;28;2590;-64
2023/07/13 00:50:46;;;;;;;;;;;;;;;24.40;54.85;95644.91;10406949;28;1973;-64
2023/07/13 00:55:47;;;;;;;;;;;;;;;24.39;54.34;95647.84;10390660;28;1839;-63
2023/07/13 01:00:47;;;;;;;;;;;;;;;24.35;54.58;95657.50;10363654;28;2135;-64
2023/07/13 01:05:48;;;;;;;;;;;;;;;24.37;54.33;95629.63;10388741;28;1997;-64
2023/07/13 01:10:52;;;;;;;;;;;;;;;24.39;54.39;95624.00;10402124;28;1988;-64
2023/07/13 01:15:53;;;;;;;;;;;;;;;24.38;54.38;95615.28;10407588;28;2124;-64
2023/07/13 01:20:53;;;;;;;;;;;;;;;24.37;54.31;95608.44;10406920;28;1972;-64
2023/07/13 01:25:54;;;;;;;;;;;;;;;24.42;54.17;95602.22;10405070;28;2790;-64
2023/07/13 01:30:55;;;;;;;;;;;;;;;24.46;54.16;95595.25;10414483;28;2324;-64
2023/07/13 01:35:58;;;;;;;;;;;;;;;24.49;54.11;95587.47;10415772;28;1916;-63
2023/07/13 01:40:59;;;;;;;;;;;;;;;24.53;54.05;95592.94;10418398;28;4457;-64
2023/07/13 01:45:59;;;;;;;;;;;;;;;24.54;53.88;95599.81;10418658;28;2545;-64
2023/07/13 01:50:59;;;;;;;;;;;;;;;24.59;53.77;95615.56;10409207;28;2181;-64
2023/07/13 01:56:00;;;;;;;;;;;;;;;24.63;54.00;95627.13;10413349;28;1953;-64
2023/07/13 02:01:00;;;;;;;;;;;;;;;24.67;53.98;95622.78;10418897;28;1932;-64
2023/07/13 02:06:00;;;;;;;;;;;;;;;24.71;53.63;95629.84;10414249;28;1983;-64
2023/07/13 02:11:02;;;;;;;;;;;;;;;24.73;53.76;95632.22;10413215;28;2019;-64
2023/07/13 02:16:02;;;;;;;;;;;;;;;24.74;53.72;95633.81;10397355;28;1989;-64
2023/07/13 02:21:02;;;;;;;;;;;;;;;24.74;53.37;95628.50;10414626;28;2430;-65
2023/07/13 02:26:03;;;;;;;;;;;;;;;24.74;53.58;95631.16;10412453;28;2008;-64
2023/07/13 02:31:09;;;;;;;;;;;;;;;24.76;53.64;95639.59;10408072;28;2043;-64
2023/07/13 02:36:09;;;;;;;;;;;;;;;24.79;53.48;95652.25;10409251;28;1968;-64
2023/07/13 02:41:10;;;;;;;;;;;;;;;24.79;53.58;95663.59;10417492;28;4431;-64
2023/07/13 02:46:10;;;;;;;;;;;;;;;24.76;53.76;95679.34;10411291;28;2467;-64
2023/07/13 02:51:11;;;;;;;;;;;;;;;24.70;53.75;95691.91;10408976;28;1952;-65
2023/07/13 02:56:11;;;;;;;;;;;;;;;24.52;54.27;95687.56;10409883;28;1932;-64
2023/07/13 03:01:12;;;;;;;;;;;;;;;24.52;54.23;95684.13;10407158;28;1955;-64
2023/07/13 03:06:12;;;;;;;;;;;;;;;24.41;54.46;95685.44;10412893;28;2075;-64
2023/07/13 03:11:13;;;;;;;;;;;;;;;24.42;54.14;95677.19;10409144;28;2043;-63
2023/07/13 03:16:15;;;;;;;;;;;;;;;24.43;53.96;95676.09;10409212;28;2546;-63
2023/07/13 03:21:15;;;;;;;;;;;;;;;24.44;54.01;95692.78;10410954;28;1912;-64
2023/07/13 03:26:17;;;;;;;;;;;;;;;24.40;53.93;95703.19;10415579;28;1956;-64
2023/07/13 03:31:18;;;;;;;;;;;;;;;24.42;53.74;95697.59;10412734;28;2166;-64
2023/07/13 03:36:21;;;;;;;;;;;;;;;24.45;53.78;95691.69;10409446;28;1968;-64
2023/07/13 03:41:21;;;;;;;;;;;;;;;24.45;53.59;95705.75;10392161;28;4459;-64
2023/07/13 03:46:21;;;;;;;;;;;;;;;24.44;53.71;95708.69;10409679;28;2000;-64
2023/07/13 03:51:22;;;;;;;;;;;;;;;24.44;53.48;95701.50;10409001;28;2284;-65
2023/07/13 03:56:22;;;;;;;;;;;;;;;24.44;53.28;95698.84;10408353;28;2179;-64
2023/07/13 04:01:22;;;;;;;;;;;;;;;24.41;53.44;95703.97;10407246;28;1888;-64
2023/07/13 04:06:25;;;;;;;;;;;;;;;24.39;53.23;95706.94;10411936;28;1929;-64
2023/07/13 04:11:26;;;;;;;;;;;;;;;24.36;53.14;95712.06;10408162;28;2272;-64
2023/07/13 04:16:26;;;;;;;;;;;;;;;24.34;53.15;95714.97;10407541;28;2274;-64
2023/07/13 04:21:27;;;;;;;;;;;;;;;24.34;52.88;95730.13;10412257;28;2273;-64
2023/07/13 04:26:27;;;;;;;;;;;;;;;24.30;52.81;95729.13;10408215;28;2000;-64
2023/07/13 04:31:28;;;;;;;;;;;;;;;24.33;52.88;95725.88;10408656;28;2170;-64
2023/07/13 04:36:28;;;;;;;;;;;;;;;24.33;52.80;95733.81;10388484;28;2339;-64
2023/07/13 04:41:28;;;;;;;;;;;;;;;24.30;52.56;95729.13;10409868;28;4491;-64
2023/07/13 04:46:29;;;;;;;;;;;;;;;24.32;52.71;95740.97;10406381;28;2455;-64
2023/07/13 04:51:29;;;;;;;;;;;;;;;24.32;52.82;95742.88;10415572;28;1948;-64
2023/07/13 04:56:30;;;;;;;;;;;;;;;24.32;52.51;95750.81;10409806;28;1933;-65
2023/07/13 05:01:30;;;;;;;;;;;;;;;24.33;52.60;95744.44;10408392;28;1945;-68
2023/07/13 05:06:31;;;;;;;;;;;;;;;24.31;52.56;95749.22;10409784;28;2467;-63
2023/07/13 05:11:31;;;;;;;;;;;;;;;24.31;52.56;95762.47;10404309;28;1970;-63
2023/07/13 05:16:32;;;;;;;;;;;;;;;24.28;52.42;95755.91;10402266;28;1943;-64
2023/07/13 05:21:32;;;;;;;;;;;;;;;24.28;52.47;95763.09;10408021;28;1984;-64
2023/07/13 05:26:32;;;;;;;;;;;;;;;24.30;52.61;95755.63;10387321;28;1978;-63
2023/07/13 05:31:33;;;;;;;;;;;;;;;24.35;52.57;95758.16;10418318;28;2021;-63
2023/07/13 05:36:33;;;;;;;;;;;;;;;24.32;52.20;95758.75;10407364;28;2010;-63
2023/07/13 05:41:33;;;;;;;;;;;;;;;24.29;52.25;95762.00;10405446;28;4557;-63
2023/07/13 05:46:33;;;;;;;;;;;;;;;24.28;52.26;95763.84;10406625;28;2502;-64
2023/07/13 05:51:34;;;;;;;;;;;;;;;24.38;52.33;95762.88;10404937;28;1946;-64
2023/07/13 05:56:34;;;;;;;;;;;;;;;24.45;52.14;95768.53;10404746;28;1971;-65
2023/07/13 06:01:34;;;;;;;;;;;;;;;24.49;52.05;95766.88;10405563;28;1893;-65
2023/07/13 06:06:34;;;;;;;;;;;;;;;24.53;51.69;95770.47;10402568;28;1968;-65
2023/07/13 06:11:35;;;;;;;;;;;;;;;24.56;51.67;95769.91;10409067;28;2263;-65
2023/07/13 06:16:35;;;;;;;;;;;;;;;24.59;51.67;95779.88;10407090;28;1929;-65
2023/07/13 06:21:35;;;;;;;;;;;;;;;24.62;51.50;95789.91;10412424;28;1909;-65
2023/07/13 06:26:35;;;;;;;;;;;;;;;24.65;51.37;95784.00;10411814;28;1944;-64
2023/07/13 06:31:36;;;;;;;;;;;;;;;24.68;51.21;95788.72;10414969;28;2104;-64
2023/07/13 06:36:38;;;;;;;;;;;;;;;24.69;51.38;95796.38;10413559;28;1928;-65
2023/07/13 06:41:38;;;;;;;;;;;;;;;24.73;50.98;95801.88;10412900;28;1937;-64
2023/07/13 06:46:39;;;;;;;;;;;;;;;24.75;51.10;95810.34;10410582;28;2432;-63
2023/07/13 06:51:39;;;;;;;;;;;;;;;24.77;50.89;95816.13;10413005;28;1906;-64
2023/07/13 06:56:39;;;;;;;;;;;;;;;24.78;50.73;95822.97;10413559;28;1896;-64
2023/07/13 07:01:39;;;;;;;;;;;;;;;24.79;50.93;95822.69;10405237;28;2034;-65
2023/07/13 07:06:39;;;;;;;;;;;;;;;24.81;50.74;95827.69;10412932;28;1956;-64
2023/07/13 07:11:40;;;;;;;;;;;;;;;24.83;50.63;95830.84;10409903;28;1937;-65
2023/07/13 07:16:40;;;;;;;;;;;;;;;24.85;50.80;95833.97;10410426;28;1975;-64
2023/07/13 07:21:40;;;;;;;;;;;;;;;24.85;50.49;95834.75;10409354;28;1980;-64
2023/07/13 07:26:41;;;;;;;;;;;;;;;24.87;50.54;95826.50;10407537;28;1936;-65
2023/07/13 07:31:41;;;;;;;;;;;;;;;24.88;50.54;95830.72;10421470;28;1969;-64
2023/07/13 07:36:41;;;;;;;;;;;;;;;24.89;50.28;95841.00;10408643;28;2026;-64
2023/07/13 07:41:41;;;;;;;;;;;;;;;24.91;50.45;95846.03;10407900;28;4609;-63
2023/07/13 07:46:42;;;;;;;;;;;;;;;24.91;50.29;95852.13;10410158;28;1959;-65
2023/07/13 07:51:42;;;;;;;;;;;;;;;24.92;50.31;95863.50;10412881;28;2080;-64
2023/07/13 07:56:42;;;;;;;;;;;;;;;24.93;50.16;95870.38;10412873;28;2444;-64
2023/07/13 08:01:45;;;;;;;;;;;;;;;24.95;50.09;95860.28;10404320;28;1960;-64
2023/07/13 08:06:45;;;;;;;;;;;;;;;24.95;49.90;95878.84;10411421;28;1988;-64
2023/07/13 08:11:45;;;;;;;;;;;;;;;24.96;50.12;95883.03;10410021;28;2060;-64
2023/07/13 08:16:46;;;;;;;;;;;;;;;24.97;50.04;95893.38;10406670;28;1956;-64
2023/07/13 08:21:48;;;;;;;;;;;;;;;24.98;49.74;95894.94;10409972;28;1980;-64
2023/07/13 08:26:48;;;;;;;;;;;;;;;25.00;49.85;95894.63;10404677;28;1845;-64
2023/07/13 08:31:48;;;;;;;;;;;;;;;25.00;49.72;95894.63;10404247;28;1906;-65
2023/07/13 08:36:48;;;;;;;;;;;;;;;25.02;49.62;95905.72;10409319;28;1944;-65
2023/07/13 08:41:50;;;;;;;;;;;;;;;25.02;49.64;95906.50;10406694;28;4489;-64
2023/07/13 08:46:52;;;;;;;;;;;;;;;25.03;49.67;95907.28;10404030;28;2032;-65
2023/07/13 08:51:57;;;;;;;;;;;;;;;25.04;49.69;95919.47;10415115;28;2436;-64
2023/07/13 08:56:58;;;;;;;;;;;;;;;25.04;49.60;95917.59;10393300;28;1783;-64
2023/07/13 09:02:09;;;;;;;;;;;;;;;25.06;49.56;95921.84;10423359;28;1967;-65
2023/07/13 09:07:28;;;;;;;;;;;;;;;25.06;49.48;95919.94;10391607;28;1884;-64
2023/07/13 09:12:34;;;;;;;;;;;;;;;25.07;49.52;95921.53;10407462;28;2009;-64
2023/07/13 09:17:36;;;;;;;;;;;;;;;25.08;49.48;95914.38;10407633;28;2122;-64
2023/07/13 09:22:36;;;;;;;;;;;;;;;25.07;49.41;95918.88;10404390;28;1894;-64
2023/07/13 09:27:39;;;;;;;;;;;;;;;25.10;49.45;95914.84;10391962;28;1842;-65
2023/07/13 09:32:42;;;;;;;;;;;;;;;25.09;49.39;95906.09;10409943;28;1973;-65
2023/07/13 09:37:43;;;;;;;;;;;;;;;25.10;49.18;95922.81;10396288;28;2092;-64
2023/07/13 09:42:43;;;;;;;;;;;;;;;25.10;49.20;95923.56;10391809;28;4587;-64
2023/07/13 09:47:43;;;;;;;;;;;;;;;25.10;49.01;95920.16;10410466;28;1958;-64
2023/07/13 09:52:47;;;;;;;;;;;;;;;25.11;48.91;95913.75;10415724;28;2313;-64
2023/07/13 09:57:48;;;;;;;;;;;;;;;25.12;49.23;95924.09;10418593;28;1914;-64
2023/07/13 10:02:52;;;;;;;;;;;;;;;25.12;48.86;95921.44;10413448;28;1949;-65
2023/07/13 10:07:52;;;;;;;;;;;;;;;25.12;48.98;95916.13;10403566;28;1905;-64
2023/07/13 10:12:52;;;;;;;;;;;;;;;25.13;49.05;95916.91;10403985;28;2104;-65
2023/07/13 10:17:53;;;;;;;;;;;;;;;25.15;49.14;95926.13;10413582;28;1898;-64
2023/07/13 10:23:04;;;;;;;;;;;;;;;25.16;49.12;95942.84;10416905;28;1987;-64
2023/07/13 10:28:06;;;;;;;;;;;;;;;25.17;49.01;95933.78;10415433;28;1897;-64
2023/07/13 10:33:08;;;;;;;;;;;;;;;25.18;49.02;95935.38;10413459;28;1910;-64
2023/07/13 10:38:18;;;;;;;;;;;;;;;25.17;48.85;95923.97;10411927;28;1910;-64
2023/07/13 10:43:23;;;;;;;;;;;;;;;25.19;48.78;95940.38;10400430;28;4514;-64
2023/07/13 10:48:23;;;;;;;;;;;;;;;25.18;48.68;95932.72;10416041;28;2257;-64
2023/07/13 10:53:34;;;;;;;;;;;;;;;25.19;48.73;95932.41;10412853;28;2028;-64
2023/07/13 10:58:38;;;;;;;;;;;;;;;25.20;48.77;95927.91;10388529;28;1958;-64
2023/07/13 11:03:46;;;;;;;;;;;;;;;25.21;48.62;95940.06;10411744;28;1898;-64
2023/07/13 11:08:46;;;;;;;;;;;;;;;25.22;48.67;95939.78;10392588;28;1860;-64
2023/07/13 11:13:49;;;;;;;;;;;;;;;25.22;48.26;95947.75;10412559;28;1952;-64
2023/07/13 11:18:50;;;;;;;;;;;;;;;25.23;48.37;95951.16;10407538;28;1983;-64
2023/07/13 11:23:55;;;;;;;;;;;;;;;25.23;48.51;95948.50;10413052;28;1862;-64
2023/07/13 11:28:55;;;;;;;;;;;;;;;25.23;48.45;95938.69;10388810;28;2011;-64
2023/07/13 11:33:56;;;;;;;;;;;;;;;25.24;48.37;95924.34;10413918;28;2001;-64
2023/07/13 11:38:56;;;;;;;;;;;;;;;25.24;48.44;95916.41;10392551;28;1930;-64
2023/07/13 11:44:23;;;;;;;;;;;;;;;25.26;48.21;95910.78;10412631;28;4482;-64
2023/07/13 11:49:24;;;;;;;;;;;;;;;25.26;48.36;95903.63;10408528;28;2014;-64
2023/07/13 11:54:32;;;;;;;;;;;;;;;25.28;48.25;95904.09;10422890;28;2027;-64
2023/07/13 11:59:33;;;;;;;;;;;;;;;25.29;48.07;95896.91;10409672;28;2048;-64
2023/07/13 12:04:33;;;;;;;;;;;;;;;25.29;48.23;95900.34;10414821;28;2253;-64
2023/07/13 12:09:33;;;;;;;;;;;;;;;25.31;48.64;95895.53;10398691;28;1916;-64
2023/07/13 12:14:34;;;;;;;;;;;;;;;25.31;48.55;95892.06;10415648;28;2004;-64
2023/07/13 12:19:34;;;;;;;;;;;;;;;25.32;48.15;95894.44;10413378;28;1819;-64
2023/07/13 12:24:34;;;;;;;;;;;;;;;25.32;48.21;95889.16;10393806;28;2100;-64
2023/07/13 12:29:34;;;;;;;;;;;;;;;25.32;48.15;95888.34;10406554;28;2155;-64
2023/07/13 12:34:49;;;;;;;;;;;;;;;25.33;47.87;95884.59;10418216;28;1919;-64
2023/07/13 12:39:49;;;;;;;;;;;;;;;25.32;48.28;95883.84;10402249;28;4162;-63
2023/07/13 12:44:50;;;;;;;;;;;;;;;25.33;47.96;95876.63;10408905;28;2640;-64
2023/07/13 12:49:52;;;;;;;;;;;;;;;25.34;48.11;95864.97;10391760;28;1861;-64
2023/07/13 12:54:58;;;;;;;;;;;;;;;25.34;48.03;95863.09;10408306;28;1980;-64
2023/07/13 12:59:58;;;;;;;;;;;;;;;25.35;48.13;95866.53;10412803;28;2032;-64
2023/07/13 13:04:58;;;;;;;;;;;;;;;25.35;47.99;95864.66;10391848;28;1930;-64
2023/07/13 13:09:58;;;;;;;;;;;;;;;25.36;47.97;95860.13;10394438;28;1862;-64
2023/07/13 13:14:59;;;;;;;;;;;;;;;25.36;47.90;95857.47;10407334;28;1987;-63
2023/07/13 13:19:59;;;;;;;;;;;;;;;25.37;47.89;95859.06;10409054;28;1984;-63
2023/07/13 13:25:00;;;;;;;;;;;;;;;25.37;47.83;95856.41;10411765;28;2055;-64
2023/07/13 13:30:00;;;;;;;;;;;;;;;25.36;47.87;95855.63;10421842;28;2107;-64
2023/07/13 13:35:01;;;;;;;;;;;;;;;25.37;47.76;95854.50;10413970;28;2322;-63
2023/07/13 13:40:02;;;;;;;;;;;;;;;25.37;47.98;95853.75;10419619;28;4529;-64
2023/07/13 13:45:02;;;;;;;;;;;;;;;25.39;47.93;95870.16;10414773;28;2455;-64
2023/07/13 13:50:15;;;;;;;;;;;;;;;25.38;47.89;95872.03;10416337;28;1892;-64
2023/07/13 13:55:18;;;;;;;;;;;;;;;25.41;47.89;95870.66;10393696;28;1908;-65
2023/07/13 14:00:19;;;;;;;;;;;;;;;25.39;47.89;95868.25;10411548;28;2123;-64
2023/07/13 14:05:23;;;;;;;;;;;;;;;25.40;47.74;95861.09;10395758;28;1885;-64
2023/07/13 14:10:23;;;;;;;;;;;;;;;25.40;47.61;95861.09;10411526;28;1950;-63
2023/07/13 14:15:25;;;;;;;;;;;;;;;25.40;47.61;95875.16;10423873;28;1879;-64
2023/07/13 14:20:25;;;;;;;;;;;;;;;25.40;47.61;95861.88;10413599;28;1894;-64
2023/07/13 14:25:26;;;;;;;;;;;;;;;25.41;47.66;95858.16;10414118;28;1847;-64
2023/07/13 14:30:26;;;;;;;;;;;;;;;25.42;47.66;95861.59;10416101;28;2278;-64
2023/07/13 14:35:27;;;;;;;;;;;;;;;25.42;47.59;95856.31;10410632;28;2193;-65
2023/07/13 14:40:28;;;;;;;;;;;;;;;25.42;47.58;95865.06;10393883;28;4650;-65
2023/07/13 14:45:29;;;;;;;;;;;;;;;25.42;47.44;95859.75;10412822;28;2588;-64
2023/07/13 14:50:30;;;;;;;;;;;;;;;25.43;47.52;95857.88;10396205;28;2002;-65
2023/07/13 14:55:30;;;;;;;;;;;;;;;25.43;47.48;95863.94;10392740;28;1931;-65
2023/07/13 15:00:31;;;;;;;;;;;;;;;25.43;47.46;95860.53;10416361;28;2071;-64
2023/07/13 15:05:31;;;;;;;;;;;;;;;25.43;47.31;95850.69;10412663;28;1881;-65
2023/07/13 15:10:32;;;;;;;;;;;;;;;25.43;47.43;95857.88;10413570;28;1935;-64
2023/07/13 15:15:33;;;;;;;;;;;;;;;25.43;47.44;95844.63;10414821;28;2034;-63
2023/07/13 15:20:35;;;;;;;;;;;;;;;25.44;47.39;95844.31;10396106;28;1879;-64
2023/07/13 15:25:35;;;;;;;;;;;;;;;25.44;47.37;95839.00;10419483;28;1902;-64
2023/07/13 15:30:40;;;;;;;;;;;;;;;25.44;47.50;95838.22;10410241;28;2088;-64
2023/07/13 15:35:42;;;;;;;;;;;;;;;25.45;47.44;95845.84;10413918;28;2262;-65
2023/07/13 15:40:42;;;;;;;;;;;;;;;25.45;47.37;95843.19;10412170;28;1911;-65
2023/07/13 15:45:43;;;;;;;;;;;;;;;25.45;47.48;95843.19;10394297;28;2467;-64
2023/07/13 15:50:45;;;;;;;;;;;;;;;25.45;47.49;95843.19;10406724;28;1913;-65
2023/07/13 15:55:45;;;;;;;;;;;;;;;25.46;47.29;95841.34;10408276;28;1933;-65
2023/07/13 16:00:45;;;;;;;;;;;;;;;25.46;47.23;95836.03;10412062;28;1890;-64
2023/07/13 16:05:47;;;;;;;;;;;;;;;25.46;47.36;95844.00;10397672;28;2094;-66
2023/07/13 16:10:47;;;;;;;;;;;;;;;25.46;47.38;95850.09;10412044;28;2059;-66
2023/07/13 16:15:48;;;;;;;;;;;;;;;25.40;45.00;95853.94;10401192;28;1917;-64
2023/07/13 16:20:48;;;;;;;;;;;;;;;25.14;42.74;95847.66;10383954;28;1965;-63
2023/07/13 16:25:49;;;;;;;;;;;;;;;24.79;40.08;95853.72;10406665;28;2471;-63
2023/07/13 16:30:50;;;;;;;;;;;;;;;24.74;40.39;95846.66;10399802;28;1922;-64
2023/07/13 16:35:50;;;;;;;;;;;;;;;24.71;40.22;95863.13;10405669;28;1878;-64
2023/07/13 16:40:51;;;;;;;;;;;;;;;24.62;40.08;95862.25;10386734;28;4461;-64
2023/07/13 16:45:51;;;;;;;;;;;;;;;24.50;38.78;95867.28;10401019;28;2513;-64
2023/07/13 16:50:58;;;;;;;;;;;;;;;24.53;39.95;95865.88;10405264;28;1924;-64
2023/07/13 16:55:59;;;;;;;;;;;;;;;24.54;39.90;95857.66;10403520;28;1843;-64
2023/07/13 17:01:03;;;;;;;;;;;;;;;24.52;40.04;95859.03;10371700;28;1925;-63
2023/07/13 17:06:23;;;;;;;;;;;;;;;24.51;39.84;95863.53;10401548;28;2038;-64
2023/07/13 17:11:26;;;;;;;;;;;;;;;24.46;38.32;95865.50;10387296;28;1915;-64
2023/07/13 17:16:27;;;;;;;;;;;;;;;24.47;39.44;95867.84;10405757;28;1915;-64
2023/07/13 17:21:28;;;;;;;;;;;;;;;24.46;39.32;95871.56;10402426;28;2282;-64
2023/07/13 17:26:29;;;;;;;;;;;;;;;24.48;39.36;95868.66;10411454;28;1910;-64
2023/07/13 17:31:29;;;;;;;;;;;;;;;24.41;37.83;95861.09;10399928;28;1905;-64
2023/07/13 17:36:29;;;;;;;;;;;;;;;24.39;38.44;95862.47;10396820;28;1927;-64
2023/07/13 17:41:30;;;;;;;;;;;;;;;24.39;38.57;95865.09;10408669;28;4494;-63
2023/07/13 17:46:30;;;;;;;;;;;;;;;24.39;37.92;95865.09;10407819;28;2109;-64
2023/07/13 17:51:31;;;;;;;;;;;;;;;24.36;38.34;95873.66;10408396;28;1910;-64
2023/07/13 17:56:32;;;;;;;;;;;;;;;24.36;39.13;95879.72;10406118;28;1887;-64
2023/07/13 18:01:32;;;;;;;;;;;;;;;24.39;39.07;95875.72;10410492;28;1879;-63
2023/07/13 18:06:34;;;;;;;;;;;;;;;24.32;38.63;95870.03;10405582;28;1979;-64
2023/07/13 18:11:34;;;;;;;;;;;;;;;24.32;38.83;95878.75;10404896;28;1969;-64
2023/07/13 18:16:35;;;;;;;;;;;;;;;24.32;38.84;95880.63;10412109;28;2348;-64
2023/07/13 18:21:36;;;;;;;;;;;;;;;24.26;38.59;95874.63;10411377;28;1939;-64
2023/07/13 18:26:38;;;;;;;;;;;;;;;24.21;38.58;95886.09;10418883;28;1906;-64
2023/07/13 18:31:38;;;;;;;;;;;;;;;24.17;38.61;95889.66;10411366;28;1918;-65
2023/07/13 18:36:39;;;;;;;;;;;;;;;24.13;38.67;95881.47;10413344;28;1886;-65
2023/07/13 18:41:39;;;;;;;;;;;;;;;24.11;38.67;95890.81;10406351;28;4469;-64
2023/07/13 18:46:39;;;;;;;;;;;;;;;24.08;38.83;95886.88;10407744;28;1959;-64
2023/07/13 18:51:39;;;;;;;;;;;;;;;24.08;39.24;95892.19;10409013;28;1979;-65
2023/07/13 18:56:40;;;;;;;;;;;;;;;24.06;39.41;95894.34;10404589;28;2083;-62
2023/07/13 19:01:40;;;;;;;;;;;;;;;24.05;39.36;95894.63;10409382;28;1987;-64
2023/07/13 19:06:40;;;;;;;;;;;;;;;24.03;39.46;95900.19;10409566;28;1941;-63
2023/07/13 19:11:40;;;;;;;;;;;;;;;24.02;39.66;95893.31;10406009;28;2308;-64
2023/07/13 19:16:42;;;;;;;;;;;;;;;24.02;39.60;95897.81;10409656;28;1827;-62
2023/07/13 19:21:42;;;;;;;;;;;;;;;24.00;39.74;95900.75;10410503;28;1877;-62
2023/07/13 19:26:44;;;;;;;;;;;;;;;24.02;39.87;95908.41;10408140;28;2079;-65
2023/07/13 19:31:45;;;;;;;;;;;;;;;24.01;39.75;95917.41;10379012;28;2146;-66
2023/07/13 19:36:46;;;;;;;;;;;;;;;23.98;40.02;95929.41;10410131;28;2277;-64
2023/07/13 19:41:47;;;;;;;;;;;;;;;23.95;40.21;95935.25;10396703;28;2008;-64
2023/07/13 19:46:47;;;;;;;;;;;;;;;23.92;39.97;95950.94;10401146;28;1937;-64
2023/07/13 19:51:47;;;;;;;;;;;;;;;23.88;40.35;95957.91;10409378;28;2077;-63
2023/07/13 19:56:47;;;;;;;;;;;;;;;23.78;40.18;95964.13;10404070;28;1972;-64
2023/07/13 20:01:48;;;;;;;;;;;;;;;23.75;41.35;95963.91;10402283;28;2524;-62
2023/07/13 20:06:49;;;;;;;;;;;;;;;23.78;41.84;95974.72;10410218;28;1967;-62
2023/07/13 20:11:49;;;;;;;;;;;;;;;23.78;42.49;95969.41;10393155;28;2023;-63
2023/07/13 20:16:50;;;;;;;;;;;;;;;23.73;43.41;95980.09;10389214;28;1975;-65
2023/07/13 20:21:50;;;;;;;;;;;;;;;23.74;43.65;95986.19;10395846;28;2288;-64
2023/07/13 20:26:50;;;;;;;;;;;;;;;23.70;44.58;95985.19;10403746;28;2014;-63
2023/07/13 20:31:51;;;;;;;;;;;;;;;23.65;45.49;95986.03;10406017;28;2287;-64
2023/07/13 20:36:51;;;;;;;;;;;;;;;23.65;45.43;95993.97;10408006;28;1960;-64
2023/07/13 20:41:52;;;;;;;;;;;;;;;23.61;46.13;95998.28;10419134;28;4499;-64
2023/07/13 20:46:52;;;;;;;;;;;;;;;23.58;46.00;95993.53;10411474;28;2023;-63
2023/07/13 20:51:53;;;;;;;;;;;;;;;23.56;46.22;95998.34;10411171;28;1961;-67
2023/07/13 20:56:57;;;;;;;;;;;;;;;23.50;46.42;96004.78;10407813;28;2139;-65
2023/07/13 21:01:57;;;;;;;;;;;;;;;23.47;46.53;96013.31;10386107;28;2099;-68
2023/07/13 21:06:57;;;;;;;;;;;;;;;23.36;47.34;96020.56;10403598;28;2309;-68
2023/07/13 21:11:57;;;;;;;;;;;;;;;23.31;47.71;96020.59;10405285;28;1967;-69
2023/07/13 21:16:58;;;;;;;;;;;;;;;23.30;47.60;96020.88;10409892;28;2398;-67
2023/07/13 21:21:59;;;;;;;;;;;;;;;23.29;47.74;96024.59;10398094;28;1988;-69
2023/07/13 21:27:01;;;;;;;;;;;;;;;23.25;47.86;96026.22;10374872;28;2070;-67
2023/07/13 21:32:02;;;;;;;;;;;;;;;23.20;47.70;96019.16;10395950;28;1968;-67
2023/07/13 21:37:02;;;;;;;;;;;;;;;23.14;47.72;96022.16;10410786;28;1920;-68
2023/07/13 21:42:02;;;;;;;;;;;;;;;23.16;47.55;96023.41;10404061;28;4510;-68
2023/07/13 21:47:03;;;;;;;;;;;;;;;23.18;47.45;96028.44;10413589;28;1991;-68
2023/07/13 21:52:16;;;;;;;;;;;;;;;23.18;47.22;96026.59;10415330;28;1998;-68
2023/07/13 21:57:16;;;;;;;;;;;;;;;23.09;47.25;96022.19;10423290;28;2001;-67
2023/07/13 22:02:16;;;;;;;;;;;;;;;23.04;47.40;96025.69;10415524;28;2128;-68
2023/07/13 22:07:16;;;;;;;;;;;;;;;22.99;47.28;96028.41;10379124;28;1981;-67
2023/07/13 22:12:17;;;;;;;;;;;;;;;22.96;47.65;96028.97;10414600;28;1955;-67
2023/07/13 22:17:17;;;;;;;;;;;;;;;22.97;47.86;96024.47;10432203;28;2075;-67
2023/07/13 22:22:17;;;;;;;;;;;;;;;22.91;47.87;96026.38;10411848;28;1863;-67
2023/07/13 22:27:17;;;;;;;;;;;;;;;22.86;47.38;96029.06;10410831;28;2063;-67
2023/07/13 22:32:18;;;;;;;;;;;;;;;22.83;47.57;96023.56;10411307;28;1914;-67
2023/07/13 22:37:18;;;;;;;;;;;;;;;22.80;47.29;96019.63;10410183;28;1918;-67
2023/07/13 22:42:18;;;;;;;;;;;;;;;22.77;47.40;96024.69;10416255;28;4593;-67
2023/07/13 22:47:19;;;;;;;;;;;;;;;22.62;47.27;96023.78;10411347;28;1884;-67
2023/07/13 22:52:19;;;;;;;;;;;;;;;22.61;47.28;96016.91;10397961;28;2099;-67
2023/07/13 22:57:20;;;;;;;;;;;;;;;22.60;47.44;96015.34;10415195;28;2312;-67
2023/07/13 23:02:20;;;;;;;;;;;;;;;22.60;47.55;96014.56;10413624;28;2151;-68
2023/07/13 23:07:23;;;;;;;;;;;;;;;22.55;47.56;96010.06;10412177;28;1932;-67
2023/07/13 23:12:24;;;;;;;;;;;;;;;22.56;47.41;96019.59;10413135;28;2002;-67
2023/07/13 23:17:25;;;;;;;;;;;;;;;22.54;47.34;96015.66;10410434;28;2258;-67
2023/07/13 23:22:25;;;;;;;;;;;;;;;22.60;47.56;96023.28;10410554;28;1961;-67
2023/07/13 23:27:26;;;;;;;;;;;;;;;22.77;47.40;96022.84;10408985;28;1874;-67
2023/07/13 23:32:26;;;;;;;;;;;;;;;22.78;47.42;96036.81;10404324;28;1946;-67
2023/07/13 23:37:28;;;;;;;;;;;;;;;22.69;47.46;96022.66;10409542;28;1867;-67
2023/07/13 23:42:28;;;;;;;;;;;;;;;22.71;47.61;96020.53;10410491;28;4473;-66
2023/07/13 23:47:29;;;;;;;;;;;;;;;22.73;47.45;96018.41;10407532;28;1907;-66
2023/07/13 23:52:29;;;;;;;;;;;;;;;22.75;47.41;96022.31;10409274;28;2289;-67
2023/07/13 23:57:30;;;;;;;;;;;;;;;22.69;47.65;96012.09;10408126;28;1886;-67
